Time;durP1;ratioP1;P1;durP2;ratioP2;P2;SDS_P1;SDS_P2;PMS_P1;PMS_P2;Temp;Humidity;BMP_temperature;BMP_pressure;BME280_temperature;BME280_humidity;BME280_pressure;Samples;Min_cycle;Max_cycle;Signal;HPM_P1;HPM_P2
2023/03/30 00:00:48;;;;;;;38.50;22.70;;;10.80;99.90;;;;;;5037129;28;20052;-84
2023/03/30 00:03:18;;;;;;;42.92;23.35;;;10.80;99.90;;;;;;5037302;28;20112;-84
2023/03/30 00:05:45;;;;;;;33.78;21.75;;;10.70;99.90;;;;;;5037207;28;20140;-83
2023/03/30 00:08:17;;;;;;;40.70;22.52;;;10.80;99.90;;;;;;5037183;28;20101;-84
2023/03/30 00:10:43;;;;;;;38.50;23.20;;;10.80;99.90;;;;;;5037261;28;20045;-83
2023/03/30 00:13:15;;;;;;;38.13;21.73;;;10.70;99.90;;;;;;5037429;28;20128;-83
2023/03/30 00:15:41;;;;;;;44.30;22.53;;;10.70;99.90;;;;;;5037399;28;20041;-83
2023/03/30 00:18:07;;;;;;;39.28;22.38;;;10.70;99.90;;;;;;5037036;28;20094;-83
2023/03/30 00:20:33;;;;;;;36.78;21.67;;;10.80;99.90;;;;;;5036821;28;20570;-83
2023/03/30 00:22:59;;;;;;;35.42;22.08;;;10.70;99.90;;;;;;5036945;28;20049;-83
2023/03/30 00:25:25;;;;;;;38.13;22.90;;;10.70;99.90;;;;;;5036925;28;20045;-83
2023/03/30 00:27:51;;;;;;;40.58;23.73;;;10.80;99.90;;;;;;5036901;28;20135;-82
2023/03/30 00:30:17;;;;;;;38.67;23.58;;;10.70;99.90;;;;;;5036900;28;20040;-82
2023/03/30 00:32:45;;;;;;;42.33;21.95;;;10.70;99.90;;;;;;5036975;28;20049;-82
2023/03/30 00:35:12;;;;;;;35.97;21.67;;;10.70;99.90;;;;;;5036941;28;20056;-82
2023/03/30 00:37:48;;;;;;;35.00;21.15;;;10.70;99.90;;;;;;5036696;28;20407;-82
2023/03/30 00:40:19;;;;;;;35.00;19.98;;;10.80;99.90;;;;;;5036988;28;20045;-83
2023/03/30 00:42:46;;;;;;;34.67;20.77;;;10.80;99.90;;;;;;5036447;28;20124;-82
2023/03/30 00:45:22;;;;;;;32.92;19.95;;;10.90;99.90;;;;;;5036732;28;20037;-82
2023/03/30 00:48:16;;;;;;;33.45;20.85;;;10.80;99.90;;;;;;5036487;28;20175;-82
2023/03/30 00:50:44;;;;;;;33.30;18.63;;;10.80;99.90;;;;;;5036675;28;20053;-82
2023/03/30 00:53:15;;;;;;;33.85;19.20;;;10.80;99.90;;;;;;5036306;28;20090;-82
2023/03/30 00:55:43;;;;;;;30.30;19.33;;;10.90;99.90;;;;;;5037035;28;20426;-82
2023/03/30 00:58:10;;;;;;;32.85;19.05;;;10.90;99.90;;;;;;5036307;28;20033;-82
2023/03/30 01:00:37;;;;;;;31.52;18.55;;;10.90;99.90;;;;;;5036503;28;20103;-82
2023/03/30 01:03:10;;;;;;;32.78;18.15;;;10.90;99.90;;;;;;5036337;28;20049;-82
2023/03/30 01:05:38;;;;;;;33.55;18.02;;;10.90;99.90;;;;;;5036151;28;20479;-82
2023/03/30 01:08:06;;;;;;;31.48;18.27;;;11.00;99.90;;;;;;5036345;28;20135;-82
2023/03/30 01:10:33;;;;;;;29.88;18.08;;;11.00;99.90;;;;;;5036634;28;20127;-82
2023/03/30 01:12:59;;;;;;;31.50;18.08;;;11.00;99.90;;;;;;5036341;28;20029;-82
2023/03/30 01:15:28;;;;;;;27.98;17.80;;;11.00;99.90;;;;;;5036019;28;20052;-82
2023/03/30 01:18:26;;;;;;;28.02;18.75;;;11.00;99.90;;;;;;5036266;28;20110;-82
2023/03/30 01:21:03;;;;;;;30.08;16.35;;;11.00;99.90;;;;;;5036251;28;20045;-82
2023/03/30 01:24:06;;;;;;;30.15;17.67;;;11.00;99.90;;;;;;5053694;28;20052;-82
2023/03/30 01:26:54;;;;;;;26.38;16.80;;;11.00;99.90;;;;;;5053637;28;20123;-82
2023/03/30 01:29:57;;;;;;;30.92;15.88;;;11.00;99.90;;;;;;5053944;28;20060;-82
2023/03/30 01:32:55;;;;;;;24.67;15.40;;;11.10;99.90;;;;;;5036112;28;20099;-82
2023/03/30 01:35:57;;;;;;;25.85;15.60;;;11.10;99.90;;;;;;5053759;28;20069;-82
2023/03/30 01:38:54;;;;;;;28.17;14.68;;;11.10;99.90;;;;;;5034240;28;20079;-82
2023/03/30 01:41:28;;;;;;;21.92;13.63;;;11.10;99.90;;;;;;5035879;28;20049;-82
2023/03/30 01:44:25;;;;;;;23.52;14.63;;;11.20;99.90;;;;;;5035631;28;20052;-83
2023/03/30 01:47:05;;;;;;;26.20;13.77;;;11.20;99.90;;;;;;5035672;28;20084;-82
2023/03/30 01:49:40;;;;;;;27.95;12.43;;;11.30;99.90;;;;;;5035891;28;20476;-82
2023/03/30 01:52:11;;;;;;;27.92;13.55;;;11.40;99.90;;;;;;5035716;28;20136;-82
2023/03/30 01:54:46;;;;;;;22.75;12.82;;;11.30;99.90;;;;;;5035516;28;20049;-82
2023/03/30 01:57:16;;;;;;;25.08;13.85;;;11.40;99.90;;;;;;5053603;28;20544;-82
2023/03/30 02:00:11;;;;;;;26.67;13.90;;;11.40;99.90;;;;;;5035678;28;20082;-82
2023/03/30 02:02:37;;;;;;;24.65;14.00;;;11.40;99.90;;;;;;5053428;28;20045;-82
2023/03/30 02:05:05;;;;;;;26.38;12.55;;;11.40;99.90;;;;;;5035745;28;20083;-82
2023/03/30 02:07:33;;;;;;;21.17;12.52;;;11.40;99.90;;;;;;5035527;28;20127;-82
2023/03/30 02:10:03;;;;;;;24.40;12.95;;;11.40;99.90;;;;;;5053359;28;20106;-82
2023/03/30 02:12:31;;;;;;;23.67;12.90;;;11.40;99.90;;;;;;5035767;28;20094;-81
2023/03/30 02:15:02;;;;;;;19.77;11.70;;;11.40;99.90;;;;;;5039511;28;20076;-82
2023/03/30 02:17:29;;;;;;;20.70;11.70;;;11.30;99.90;;;;;;5039578;28;20057;-82
2023/03/30 02:19:56;;;;;;;20.42;12.32;;;11.30;99.90;;;;;;5039383;28;20475;-82
2023/03/30 02:22:25;;;;;;;20.88;10.70;;;11.40;99.90;;;;;;5039171;28;20068;-82
2023/03/30 02:24:54;;;;;;;20.25;11.00;;;11.40;99.90;;;;;;5039033;28;20488;-82
2023/03/30 02:27:21;;;;;;;18.73;10.10;;;11.40;99.90;;;;;;5039339;28;20043;-82
2023/03/30 02:29:48;;;;;;;17.77;10.82;;;11.30;99.90;;;;;;5039036;28;20403;-82
2023/03/30 02:32:30;;;;;;;20.52;10.75;;;11.30;99.90;;;;;;5039363;28;20091;-82
2023/03/30 02:35:02;;;;;;;16.73;9.82;;;11.30;99.90;;;;;;5039049;28;20041;-81
2023/03/30 02:37:41;;;;;;;19.70;9.82;;;11.20;99.90;;;;;;5038879;28;20186;-82
2023/03/30 02:40:17;;;;;;;19.35;10.27;;;11.20;99.90;;;;;;5039189;28;20494;-82
2023/03/30 02:42:58;;;;;;;17.35;9.68;;;11.20;99.90;;;;;;5039053;28;20049;-81
2023/03/30 02:45:46;;;;;;;19.58;10.32;;;11.20;99.90;;;;;;5038872;28;20052;-82
2023/03/30 02:48:31;;;;;;;16.63;9.32;;;11.10;99.90;;;;;;5038964;28;20489;-82
2023/03/30 02:51:13;;;;;;;16.85;9.07;;;11.20;99.90;;;;;;5038711;28;20044;-82
2023/03/30 02:54:03;;;;;;;17.58;8.20;;;11.20;99.90;;;;;;5038433;28;20492;-82
2023/03/30 02:57:02;;;;;;;20.67;9.50;;;11.20;99.90;;;;;;5038488;28;20471;-82
2023/03/30 02:59:36;;;;;;;16.13;9.27;;;11.20;99.90;;;;;;5036699;28;20446;-82
2023/03/30 03:02:14;;;;;;;18.00;9.00;;;11.20;99.90;;;;;;5038254;28;20045;-82
2023/03/30 03:04:42;;;;;;;16.90;8.80;;;11.10;99.90;;;;;;5038594;28;20094;-82
2023/03/30 03:07:10;;;;;;;15.38;7.18;;;11.20;99.90;;;;;;5038671;28;20037;-82
2023/03/30 03:09:36;;;;;;;15.30;7.35;;;11.20;99.90;;;;;;5038604;28;20045;-82
2023/03/30 03:12:02;;;;;;;17.95;7.25;;;11.20;99.90;;;;;;5038386;28;20067;-82
2023/03/30 03:14:28;;;;;;;21.00;7.63;;;11.10;99.90;;;;;;5038595;28;20044;-82
2023/03/30 03:16:54;;;;;;;15.95;7.85;;;11.20;99.90;;;;;;5038072;28;20128;-82
2023/03/30 03:19:19;;;;;;;19.77;8.65;;;11.10;99.90;;;;;;5038114;28;20127;-82
2023/03/30 03:21:45;;;;;;;17.10;7.45;;;11.10;99.90;;;;;;5038031;28;20095;-82
2023/03/30 03:24:12;;;;;;;24.67;9.68;;;11.10;99.90;;;;;;5055002;28;20052;-82
2023/03/30 03:26:38;;;;;;;21.67;7.70;;;11.10;99.90;;;;;;5055964;28;20051;-82
2023/03/30 03:29:04;;;;;;;17.27;7.40;;;11.10;99.90;;;;;;5037959;28;20049;-82
2023/03/30 03:31:30;;;;;;;21.23;7.95;;;11.00;99.90;;;;;;5038111;28;20110;-82
2023/03/30 03:33:55;;;;;;;20.77;8.15;;;11.00;99.90;;;;;;5055927;28;20045;-82
2023/03/30 03:36:21;;;;;;;20.85;7.47;;;10.90;99.90;;;;;;5038012;28;20048;-82
2023/03/30 03:38:47;;;;;;;16.38;7.97;;;10.90;99.90;;;;;;5038063;28;20056;-82
2023/03/30 03:41:12;;;;;;;18.58;8.55;;;10.90;99.90;;;;;;5037734;28;20079;-82
2023/03/30 03:43:38;;;;;;;17.67;8.10;;;10.90;99.90;;;;;;5018762;28;20171;-82
2023/03/30 03:46:04;;;;;;;21.63;7.80;;;10.90;99.90;;;;;;5017638;28;20132;-82
2023/03/30 03:48:30;;;;;;;16.15;6.93;;;10.80;99.90;;;;;;5017719;28;20084;-82
2023/03/30 03:50:57;;;;;;;20.70;7.90;;;10.80;99.90;;;;;;5017871;28;20075;-82
2023/03/30 03:53:24;;;;;;;22.02;7.65;;;10.70;99.90;;;;;;5035172;28;20053;-83
2023/03/30 03:55:50;;;;;;;16.08;6.95;;;10.70;99.90;;;;;;5035412;28;20515;-81
2023/03/30 03:58:16;;;;;;;20.55;8.65;;;10.70;99.90;;;;;;5017661;28;20054;-82
2023/03/30 04:00:42;;;;;;;22.40;8.77;;;10.60;99.90;;;;;;5017759;28;20469;-82
2023/03/30 04:03:08;;;;;;;21.05;8.07;;;10.60;99.90;;;;;;5017553;28;20045;-82
2023/03/30 04:05:35;;;;;;;20.98;8.40;;;10.60;99.90;;;;;;5017425;28;20133;-82
2023/03/30 04:08:01;;;;;;;16.42;7.53;;;10.60;99.90;;;;;;5017282;28;20046;-82
2023/03/30 04:10:27;;;;;;;17.13;6.97;;;10.50;99.90;;;;;;5035169;28;20458;-82
2023/03/30 04:12:57;;;;;;;22.80;7.55;;;10.60;99.90;;;;;;5017409;28;20532;-82
2023/03/30 04:15:23;;;;;;;20.08;8.95;;;10.50;99.90;;;;;;5017160;28;20557;-82
2023/03/30 04:17:56;;;;;;;24.50;8.50;;;10.60;99.90;;;;;;5017132;28;20128;-82
2023/03/30 04:20:23;;;;;;;24.30;8.77;;;10.50;99.90;;;;;;5035085;28;20037;-82
2023/03/30 04:22:52;;;;;;;22.35;9.02;;;10.60;99.90;;;;;;5017079;28;20084;-82
2023/03/30 04:25:20;;;;;;;30.08;8.88;;;10.50;99.90;;;;;;5017281;28;20114;-82
2023/03/30 04:27:49;;;;;;;22.67;8.98;;;10.60;99.90;;;;;;5034616;28;20053;-82
2023/03/30 04:30:15;;;;;;;19.52;8.07;;;10.60;99.90;;;;;;5017171;28;20511;-82
2023/03/30 04:32:40;;;;;;;20.17;8.02;;;10.70;99.90;;;;;;5017027;28;20049;-82
2023/03/30 04:35:07;;;;;;;23.08;7.43;;;10.70;99.90;;;;;;5016837;28;20046;-82
2023/03/30 04:37:34;;;;;;;27.38;8.25;;;10.70;99.90;;;;;;5016888;28;20045;-82
2023/03/30 04:40:01;;;;;;;25.30;8.85;;;10.70;99.90;;;;;;5016871;28;20107;-82
2023/03/30 04:42:33;;;;;;;29.10;9.10;;;10.70;99.90;;;;;;5016577;28;20082;-82
2023/03/30 04:45:02;;;;;;;19.13;7.97;;;10.60;99.90;;;;;;5016965;28;20117;-82
2023/03/30 04:47:29;;;;;;;23.65;8.05;;;10.70;99.90;;;;;;5016734;28;20473;-82
2023/03/30 04:49:55;;;;;;;21.95;7.95;;;10.70;99.90;;;;;;5016703;28;20087;-82
2023/03/30 04:52:22;;;;;;;25.98;7.57;;;10.70;99.90;;;;;;5016852;28;20049;-82
2023/03/30 04:54:47;;;;;;;17.90;7.57;;;10.80;99.90;;;;;;5034021;28;20493;-82
2023/03/30 04:57:14;;;;;;;24.65;7.82;;;10.70;99.90;;;;;;5016714;28;20044;-82
2023/03/30 04:59:41;;;;;;;22.63;7.18;;;10.70;99.90;;;;;;5034270;28;20385;-82
2023/03/30 05:02:07;;;;;;;19.50;7.18;;;10.70;99.90;;;;;;5016606;28;20041;-82
2023/03/30 05:04:34;;;;;;;18.45;7.38;;;10.70;99.90;;;;;;5034008;28;20045;-82
2023/03/30 05:07:00;;;;;;;19.38;6.43;;;10.70;99.90;;;;;;5016697;28;20033;-82
2023/03/30 05:12:48;;;;;;;18.88;7.72;;;10.80;99.90;;;;;;5034110;28;20092;-82
2023/03/30 05:18:00;;;;;;;19.77;6.88;;;10.80;99.90;;;;;;5016067;28;20159;-82
2023/03/30 05:24:07;;;;;;;17.75;6.97;;;10.80;99.90;;;;;;5033670;28;20160;-82
2023/03/30 05:26:39;;;;;;;22.73;6.65;;;10.80;99.90;;;;;;5015893;28;20381;-82
2023/03/30 05:29:05;;;;;;;19.10;6.57;;;10.80;99.90;;;;;;5015846;28;20059;-83
2023/03/30 05:31:31;;;;;;;20.67;6.35;;;10.90;99.90;;;;;;5015864;28;20129;-82
2023/03/30 05:33:56;;;;;;;17.70;6.45;;;10.80;99.90;;;;;;5015978;28;20128;-82
2023/03/30 05:36:22;;;;;;;26.92;5.82;;;11.00;99.90;;;;;;5015728;28;20076;-82
2023/03/30 05:46:35;;;;;;;15.98;5.70;;;10.90;99.90;;;;;;5013264;28;20444;-82
2023/03/30 05:49:01;;;;;;;20.45;6.00;;;10.90;99.90;;;;;;5011658;28;20053;-82
2023/03/30 05:51:27;;;;;;;24.98;6.45;;;10.90;99.90;;;;;;5012613;28;20068;-82
2023/03/30 05:53:53;;;;;;;17.67;6.80;;;10.90;99.90;;;;;;5013805;28;20068;-82
2023/03/30 05:56:19;;;;;;;18.75;6.32;;;10.90;99.90;;;;;;5012441;28;20041;-83
2023/03/30 05:58:45;;;;;;;21.83;6.50;;;10.90;99.90;;;;;;5012215;28;20089;-82
2023/03/30 06:01:12;;;;;;;19.65;5.72;;;10.90;99.90;;;;;;5012197;28;20065;-82
2023/03/30 06:03:38;;;;;;;19.30;5.90;;;10.90;99.90;;;;;;5012278;28;20054;-82
2023/03/30 06:06:05;;;;;;;22.42;5.60;;;10.90;99.90;;;;;;5012181;28;20048;-82
2023/03/30 06:08:31;;;;;;;27.88;6.75;;;10.90;99.90;;;;;;5012125;28;20406;-82
2023/03/30 06:10:56;;;;;;;19.20;5.72;;;10.90;99.90;;;;;;5009177;28;20486;-82
2023/03/30 06:13:23;;;;;;;19.42;5.47;;;11.00;99.90;;;;;;5009128;28;20453;-82
2023/03/30 06:15:48;;;;;;;21.83;5.45;;;11.00;99.90;;;;;;4992673;28;20450;-82
2023/03/30 06:18:14;;;;;;;22.60;5.95;;;11.00;99.90;;;;;;4993820;28;20105;-82
2023/03/30 06:20:40;;;;;;;18.45;5.50;;;11.00;99.90;;;;;;4992741;28;20046;-82
2023/03/30 06:23:05;;;;;;;18.23;5.65;;;11.10;99.90;;;;;;4992740;28;20057;-82
2023/03/30 06:25:51;;;;;;;12.60;4.80;;;11.10;99.90;;;;;;4992720;28;20046;-82
2023/03/30 06:28:18;;;;;;;21.85;4.82;;;11.10;99.90;;;;;;4992429;28;20054;-82
2023/03/30 06:30:44;;;;;;;20.38;5.10;;;11.10;99.90;;;;;;4992381;28;20394;-82
2023/03/30 06:33:10;;;;;;;16.88;4.55;;;11.10;99.90;;;;;;4992391;28;20105;-82
2023/03/30 06:35:38;;;;;;;18.73;4.70;;;11.10;99.90;;;;;;4992262;28;20046;-82
2023/03/30 06:38:04;;;;;;;14.85;5.00;;;11.10;99.90;;;;;;4992298;28;20046;-82
2023/03/30 06:40:29;;;;;;;17.52;4.35;;;11.10;99.90;;;;;;4992327;28;20096;-82
2023/03/30 06:42:55;;;;;;;18.83;4.55;;;11.10;99.90;;;;;;4991850;28;20058;-83
2023/03/30 06:45:26;;;;;;;21.75;6.45;;;11.20;99.90;;;;;;4992558;28;20050;-82
2023/03/30 06:47:52;;;;;;;14.48;5.00;;;11.20;99.90;;;;;;4992206;28;20053;-82
2023/03/30 06:50:18;;;;;;;17.27;5.72;;;11.20;99.90;;;;;;4992194;28;20046;-82
2023/03/30 06:52:43;;;;;;;16.50;5.30;;;11.20;99.90;;;;;;4992463;28;20055;-82
2023/03/30 06:55:09;;;;;;;25.13;5.65;;;11.20;99.90;;;;;;4992208;28;20042;-82
2023/03/30 06:57:35;;;;;;;17.10;5.47;;;11.30;99.90;;;;;;5008743;28;20046;-81
2023/03/30 07:00:05;;;;;;;19.02;5.72;;;11.20;99.90;;;;;;5011672;28;20052;-81
2023/03/30 07:02:33;;;;;;;25.30;6.50;;;11.20;99.90;;;;;;4995535;28;20101;-82
2023/03/30 07:04:59;;;;;;;19.20;6.47;;;11.30;99.90;;;;;;4995854;28;20050;-83
2023/03/30 07:07:25;;;;;;;26.63;5.65;;;11.20;99.90;;;;;;4995752;28;20073;-83
2023/03/30 07:09:51;;;;;;;21.30;6.55;;;11.30;99.90;;;;;;4995434;28;20042;-82
2023/03/30 07:12:16;;;;;;;18.20;5.10;;;11.30;99.90;;;;;;4997451;28;20046;-82
2023/03/30 07:14:42;;;;;;;28.08;5.78;;;11.40;99.90;;;;;;5005135;28;20085;-79
2023/03/30 07:17:08;;;;;;;26.90;6.22;;;11.40;99.90;;;;;;4995203;28;20461;-80
2023/03/30 07:19:33;;;;;;;31.30;6.65;;;11.40;99.90;;;;;;4995303;28;20134;-80
2023/03/30 07:21:59;;;;;;;23.88;5.05;;;11.40;99.90;;;;;;4996304;28;20109;-81
2023/03/30 07:24:25;;;;;;;19.63;5.20;;;11.40;99.90;;;;;;4994940;28;20054;-81
2023/03/30 07:26:51;;;;;;;19.77;4.30;;;11.50;99.90;;;;;;4995208;28;20056;-81
2023/03/30 07:29:16;;;;;;;25.25;5.07;;;11.40;99.90;;;;;;4995134;28;20046;-80
2023/03/30 07:31:42;;;;;;;20.13;5.50;;;11.40;99.90;;;;;;4994959;28;20486;-80
2023/03/30 07:34:08;;;;;;;21.08;5.05;;;11.40;99.90;;;;;;4996196;28;20050;-82
2023/03/30 07:36:33;;;;;;;23.05;4.45;;;11.40;99.90;;;;;;4994833;28;20514;-86
2023/03/30 07:39:00;;;;;;;24.30;5.60;;;11.50;99.90;;;;;;4994899;28;20043;-82
2023/03/30 07:41:25;;;;;;;31.55;7.55;;;11.40;99.90;;;;;;4994681;28;20046;-84
2023/03/30 07:43:51;;;;;;;25.33;4.72;;;11.40;99.90;;;;;;4994458;28;20058;-84
2023/03/30 07:46:19;;;;;;;24.45;4.95;;;11.40;99.90;;;;;;4994393;28;20058;-84
2023/03/30 07:48:53;;;;;;;27.98;5.03;;;11.40;99.90;;;;;;4994768;28;20112;-84
2023/03/30 07:51:19;;;;;;;27.90;5.97;;;11.40;99.90;;;;;;4994426;28;20130;-81
2023/03/30 07:54:05;;;;;;;26.48;6.80;;;11.40;99.90;;;;;;4995570;28;20116;-79
2023/03/30 07:56:32;;;;;;;24.40;5.38;;;11.40;99.90;;;;;;4994577;28;20046;-79
2023/03/30 07:59:06;;;;;;;30.50;6.75;;;11.40;99.90;;;;;;4994549;28;20051;-83
2023/03/30 08:01:40;;;;;;;30.85;5.95;;;11.40;99.90;;;;;;4995042;28;20046;-79
2023/03/30 08:04:17;;;;;;;31.10;5.32;;;11.40;99.90;;;;;;4994374;28;20042;-82
2023/03/30 08:06:43;;;;;;;23.10;5.65;;;11.40;99.90;;;;;;4994511;28;20493;-82
2023/03/30 08:09:09;;;;;;;28.42;5.38;;;11.40;99.90;;;;;;4994323;28;20129;-83
2023/03/30 08:11:35;;;;;;;20.42;4.75;;;11.40;99.90;;;;;;4993991;28;20492;-82
2023/03/30 08:14:02;;;;;;;35.28;5.88;;;11.30;99.90;;;;;;4995429;28;20042;-82
2023/03/30 08:16:58;;;;;;;31.05;6.90;;;11.40;99.90;;;;;;4994544;28;20058;-84
2023/03/30 08:19:24;;;;;;;22.92;5.50;;;11.30;99.90;;;;;;4989881;28;20061;-82
2023/03/30 08:21:50;;;;;;;21.13;4.82;;;11.40;99.90;;;;;;4994006;28;20053;-82
2023/03/30 08:24:16;;;;;;;30.38;5.38;;;11.40;99.90;;;;;;4995175;28;20050;-81
2023/03/30 08:26:42;;;;;;;30.90;5.53;;;11.30;99.90;;;;;;4994304;28;20042;-81
2023/03/30 08:29:24;;;;;;;29.38;5.85;;;11.30;99.90;;;;;;4992983;28;20489;-82
2023/03/30 08:32:05;;;;;;;31.50;5.35;;;11.20;99.90;;;;;;4993744;28;20057;-83
2023/03/30 08:34:31;;;;;;;29.95;6.40;;;11.20;99.90;;;;;;4994153;28;20061;-82
2023/03/30 08:36:57;;;;;;;29.48;5.88;;;11.20;99.90;;;;;;4993951;28;20046;-82
2023/03/30 08:43:46;;;;;;;33.90;5.82;;;11.20;99.90;;;;;;4993132;28;20061;-82
2023/03/30 08:46:15;;;;;;;32.05;6.18;;;11.20;99.90;;;;;;4980095;28;20046;-82
2023/03/30 08:48:41;;;;;;;31.65;5.55;;;11.20;99.90;;;;;;4993426;28;20053;-83
2023/03/30 08:51:21;;;;;;;33.50;7.00;;;11.30;99.90;;;;;;4993643;28;20043;-83
2023/03/30 08:53:53;;;;;;;28.85;7.18;;;11.40;99.90;;;;;;4993753;28;20077;-82
2023/03/30 08:56:29;;;;;;;31.43;4.70;;;11.60;99.90;;;;;;4993620;28;20097;-83
2023/03/30 08:59:29;;;;;;;45.88;6.90;;;11.70;99.90;;;;;;4994739;28;20128;-83
2023/03/30 09:01:59;;;;;;;28.88;5.20;;;11.70;99.90;;;;;;4994503;28;20042;-83
2023/03/30 09:04:37;;;;;;;30.63;5.30;;;11.80;99.90;;;;;;4993414;28;20509;-83
2023/03/30 09:07:16;;;;;;;28.08;5.20;;;11.80;99.90;;;;;;4993138;28;20050;-83
2023/03/30 09:09:44;;;;;;;23.77;4.25;;;11.80;99.90;;;;;;4993737;28;20050;-82
2023/03/30 09:12:23;;;;;;;30.17;4.43;;;11.90;99.90;;;;;;4994498;28;20045;-82
2023/03/30 09:14:54;;;;;;;26.88;4.47;;;11.90;99.90;;;;;;4993044;28;20058;-83
2023/03/30 09:17:30;;;;;;;26.00;4.40;;;11.90;99.90;;;;;;4994321;28;20050;-83
2023/03/30 09:20:00;;;;;;;22.60;3.53;;;12.00;99.90;;;;;;4993210;28;20049;-83
2023/03/30 09:22:37;;;;;;;28.95;4.72;;;12.00;99.90;;;;;;4992156;28;20046;-84
2023/03/30 09:25:14;;;;;;;26.40;4.25;;;12.10;99.90;;;;;;4993170;28;20042;-84
2023/03/30 09:28:05;;;;;;;24.10;5.20;;;12.20;99.90;;;;;;4993166;28;20116;-84
2023/03/30 09:30:46;;;;;;;20.63;4.60;;;12.20;99.90;;;;;;4992866;28;20042;-84
2023/03/30 09:33:18;;;;;;;28.88;4.00;;;12.10;99.90;;;;;;4993126;28;20057;-84
2023/03/30 09:35:57;;;;;;;23.92;3.83;;;12.20;99.90;;;;;;4992716;28;20050;-83
2023/03/30 09:38:25;;;;;;;22.90;3.90;;;12.10;99.90;;;;;;4992760;28;20054;-86
2023/03/30 09:41:09;;;;;;;19.48;3.72;;;12.20;99.90;;;;;;4992979;28;20124;-83
2023/03/30 09:43:43;;;;;;;24.65;3.78;;;12.30;99.90;;;;;;4993648;28;20062;-83
2023/03/30 09:46:09;;;;;;;19.90;4.22;;;12.30;99.90;;;;;;4992517;28;20509;-83
2023/03/30 09:48:43;;;;;;;21.00;4.18;;;12.30;99.90;;;;;;4992839;28;20398;-83
2023/03/30 09:51:24;;;;;;;21.40;3.85;;;12.40;99.90;;;;;;4992779;28;20043;-83
2023/03/30 09:53:57;;;;;;;25.00;3.17;;;12.30;99.90;;;;;;4992852;28;20189;-83
2023/03/30 09:56:45;;;;;;;;;;;12.30;99.90;;;;;;4992932;28;20080;-83
2023/03/30 09:59:44;;;;;;;22.58;5.25;;;12.20;99.90;;;;;;4992459;28;19921;-84
2023/03/30 10:02:15;;;;;;;28.83;3.47;;;12.20;99.90;;;;;;4981915;28;20062;-83
2023/03/30 10:04:55;;;;;;;21.23;3.85;;;12.00;99.90;;;;;;4992471;28;20057;-84
2023/03/30 10:07:21;;;;;;;24.02;3.75;;;12.10;99.90;;;;;;4992414;28;20128;-83
2023/03/30 10:09:46;;;;;;;22.73;5.03;;;12.00;99.90;;;;;;4992618;28;20142;-85
2023/03/30 10:12:14;;;;;;;26.35;4.88;;;12.00;99.90;;;;;;4992416;28;20129;-81
2023/03/30 10:14:40;;;;;;;17.70;3.55;;;12.00;99.90;;;;;;4992321;28;20057;-81
2023/03/30 10:17:06;;;;;;;27.17;3.60;;;12.00;99.90;;;;;;4992630;28;20046;-81
2023/03/30 10:19:34;;;;;;;24.20;4.22;;;12.00;99.90;;;;;;4992516;28;20050;-81
2023/03/30 10:22:03;;;;;;;28.90;3.50;;;12.10;99.90;;;;;;4992510;28;20478;-81
2023/03/30 10:24:31;;;;;;;17.77;3.88;;;12.00;99.90;;;;;;4992290;28;20089;-81
2023/03/30 10:27:10;;;;;;;25.58;4.57;;;12.10;99.90;;;;;;4993636;28;20038;-89
2023/03/30 10:29:35;;;;;;;25.50;5.05;;;12.10;99.90;;;;;;4993798;28;20054;-79
2023/03/30 10:32:09;;;;;;;25.98;4.47;;;12.10;99.90;;;;;;4992234;28;20046;-81
2023/03/30 10:34:39;;;;;;;21.38;3.45;;;12.10;99.90;;;;;;4994736;28;20061;-81
2023/03/30 10:37:27;;;;;;;20.65;3.83;;;12.20;99.90;;;;;;4995967;28;20042;-82
2023/03/30 10:39:55;;;;;;;32.00;4.75;;;12.10;99.90;;;;;;4995961;28;20042;-81
2023/03/30 10:42:25;;;;;;;32.42;4.63;;;12.10;99.90;;;;;;4995764;28;20533;-81
2023/03/30 10:45:00;;;;;;;28.25;4.50;;;12.20;99.90;;;;;;4996100;28;20133;-80
2023/03/30 10:47:37;;;;;;;34.63;4.50;;;12.20;99.90;;;;;;4996036;28;20054;-83
2023/03/30 10:50:06;;;;;;;22.98;3.80;;;12.20;99.90;;;;;;5012342;28;20050;-80
2023/03/30 10:52:53;;;;;;;26.85;5.03;;;12.20;99.90;;;;;;4995651;28;20431;-81
2023/03/30 10:55:30;;;;;;;24.85;4.55;;;12.20;99.90;;;;;;4995628;28;20051;-80
2023/03/30 10:58:14;;;;;;;33.08;5.68;;;12.20;99.90;;;;;;4996813;28;20406;-81
2023/03/30 11:01:07;;;;;;;24.63;4.88;;;12.20;99.90;;;;;;4995511;28;20051;-80
2023/03/30 11:03:37;;;;;;;31.55;4.97;;;12.20;99.90;;;;;;4995467;28;20058;-82
2023/03/30 11:06:17;;;;;;;30.15;5.88;;;12.30;99.90;;;;;;4995316;28;20461;-81
2023/03/30 11:08:49;;;;;;;31.25;4.95;;;12.40;99.90;;;;;;4996741;28;20089;-83
2023/03/30 11:11:22;;;;;;;26.52;4.57;;;12.50;99.90;;;;;;4995544;28;20058;-83
2023/03/30 11:13:56;;;;;;;36.42;5.43;;;12.50;99.90;;;;;;4995548;28;20064;-84
2023/03/30 11:16:51;;;;;;;32.65;4.68;;;12.50;99.90;;;;;;4996793;28;20117;-84
2023/03/30 11:19:21;;;;;;;31.55;5.25;;;12.50;99.90;;;;;;5007750;28;20164;-84
2023/03/30 11:22:08;;;;;;;32.55;4.57;;;12.60;99.90;;;;;;4995163;28;20042;-84
2023/03/30 11:24:35;;;;;;;32.53;5.72;;;12.60;99.90;;;;;;4995169;28;20137;-84
2023/03/30 11:27:30;;;;;;;38.65;5.05;;;12.60;99.90;;;;;;4994991;28;20105;-84
2023/03/30 11:30:04;;;;;;;27.15;4.60;;;12.70;99.90;;;;;;4994916;28;20051;-84
2023/03/30 11:32:55;;;;;;;26.77;4.65;;;12.70;99.90;;;;;;4995045;28;20046;-84
2023/03/30 11:35:35;;;;;;;37.92;4.57;;;12.80;99.90;;;;;;4995085;28;20046;-84
2023/03/30 11:38:13;;;;;;;32.47;5.20;;;12.90;99.90;;;;;;4994723;28;20043;-85
2023/03/30 11:40:50;;;;;;;27.85;4.43;;;13.00;99.90;;;;;;4994809;28;20054;-81
2023/03/30 11:43:22;;;;;;;27.80;4.65;;;13.00;99.90;;;;;;4994503;28;20498;-87
2023/03/30 11:46:07;;;;;;;23.90;4.63;;;13.20;99.90;;;;;;4993634;28;20058;-87
2023/03/30 11:48:54;;;;;;;28.63;3.90;;;13.40;99.90;;;;;;4994885;28;20050;-81
2023/03/30 11:51:43;;;;;;;28.65;4.43;;;13.40;99.90;;;;;;4994646;28;20077;-80
2023/03/30 11:54:37;;;;;;;37.70;5.82;;;13.50;99.90;;;;;;4994833;28;20065;-89
2023/03/30 11:57:33;;;;;;;34.05;5.95;;;13.50;99.90;;;;;;4994787;28;20437;-81
2023/03/30 12:00:21;;;;;;;25.25;4.72;;;13.50;99.90;;;;;;4995732;28;20058;-82
2023/03/30 12:03:05;;;;;;;37.85;5.00;;;13.40;99.90;;;;;;4995632;28;20051;-83
2023/03/30 12:05:39;;;;;;;34.03;4.18;;;13.50;99.90;;;;;;4994701;28;20046;-84
2023/03/30 12:08:29;;;;;;;27.38;4.63;;;13.60;99.90;;;;;;4994535;28;20069;-89
2023/03/30 12:11:06;;;;;;;37.95;5.20;;;13.60;99.90;;;;;;4994476;28;20085;-88
2023/03/30 12:13:32;;;;;;;33.33;5.72;;;13.60;99.90;;;;;;4994134;28;20043;-81
2023/03/30 12:16:02;;;;;;;33.25;4.88;;;13.60;99.90;;;;;;4994425;28;20101;-82
2023/03/30 12:18:56;;;;;;;28.38;4.80;;;13.60;99.90;;;;;;4995297;28;20050;-81
2023/03/30 12:21:44;;;;;;;30.73;4.18;;;13.60;99.90;;;;;;4987319;28;20047;-82
2023/03/30 12:24:20;;;;;;;25.35;4.28;;;13.50;99.90;;;;;;5010341;28;20050;-89
2023/03/30 12:26:47;;;;;;;19.58;4.43;;;13.50;99.90;;;;;;4993856;28;20519;-83
2023/03/30 12:29:16;;;;;;;31.70;5.72;;;13.50;99.90;;;;;;4993896;28;20052;-83
2023/03/30 12:32:01;;;;;;;33.40;5.78;;;13.50;99.90;;;;;;4994141;28;20097;-80
2023/03/30 12:34:36;;;;;;;33.20;5.75;;;13.50;99.90;;;;;;4993864;28;20046;-85
2023/03/30 12:37:17;;;;;;;29.05;4.63;;;13.60;99.90;;;;;;4993720;28;20039;-87
2023/03/30 12:39:47;;;;;;;26.00;6.00;;;13.60;99.90;;;;;;4993997;28;20133;-80
2023/03/30 12:42:33;;;;;;;37.78;6.63;;;13.60;99.90;;;;;;4993422;28;20053;-80
2023/03/30 12:45:10;;;;;;;33.55;5.85;;;13.60;99.90;;;;;;4993585;28;20137;-81
2023/03/30 12:47:54;;;;;;;27.85;4.90;;;13.60;99.90;;;;;;4993830;28;20472;-82
2023/03/30 12:50:40;;;;;;;33.67;5.60;;;13.70;99.90;;;;;;4994813;28;20535;-79
2023/03/30 12:53:08;;;;;;;25.67;5.40;;;13.90;99.90;;;;;;4993525;28;20069;-81
2023/03/30 12:56:06;;;;;;;43.72;6.05;;;13.80;99.90;;;;;;4993432;28;20133;-80
2023/03/30 12:59:19;;;;;;;32.45;4.88;;;13.80;99.90;;;;;;4993175;28;20060;-80
2023/03/30 13:01:57;;;;;;;41.03;6.68;;;14.00;99.90;;;;;;4984992;28;20054;-81
2023/03/30 13:04:26;;;;;;;25.40;4.95;;;14.10;99.90;;;;;;4993152;28;20402;-80
2023/03/30 13:06:55;;;;;;;31.65;6.55;;;14.20;99.90;;;;;;4993227;28;20050;-80
2023/03/30 13:09:24;;;;;;;37.85;5.57;;;14.10;99.90;;;;;;4993434;28;20050;-81
2023/03/30 13:11:52;;;;;;;38.72;5.90;;;14.10;99.90;;;;;;4993315;28;20088;-81
2023/03/30 13:14:34;;;;;;;31.08;4.80;;;14.10;99.90;;;;;;4993096;28;20042;-80
2023/03/30 13:16:59;;;;;;;35.25;5.53;;;14.10;99.90;;;;;;4993083;28;20057;-80
2023/03/30 13:19:31;;;;;;;29.95;5.70;;;14.20;99.90;;;;;;4992971;28;20038;-80
2023/03/30 13:22:12;;;;;;;30.38;5.82;;;14.30;99.90;;;;;;4992952;28;20046;-82
2023/03/30 13:24:40;;;;;;;32.58;4.97;;;14.30;99.90;;;;;;4993179;28;20153;-82